createdAt,value
2023-05-19T00:01:22.158Z,9.69
2023-05-19T00:04:24.840Z,9.67
2023-05-19T00:07:31.094Z,9.75
2023-05-19T00:10:33.917Z,9.58
2023-05-19T00:13:36.899Z,9.57
2023-05-19T00:16:39.749Z,9.66
2023-05-19T00:19:42.474Z,9.67
2023-05-19T00:22:44.981Z,9.58
2023-05-19T00:25:47.448Z,9.53
2023-05-19T00:28:50.950Z,9.84
2023-05-19T00:31:53.420Z,9.62
2023-05-19T00:34:55.929Z,9.64
2023-05-19T00:37:58.403Z,9.70
2023-05-19T00:41:02.111Z,9.76
2023-05-19T00:44:04.835Z,9.78
2023-05-19T00:47:08.325Z,9.86
2023-05-19T00:50:10.999Z,9.76
2023-05-19T00:53:14.978Z,9.94
2023-05-19T00:56:18.394Z,9.98
2023-05-19T00:59:21.098Z,10.14
2023-05-19T01:02:24.080Z,10.12
2023-05-19T01:05:26.889Z,10.11
2023-05-19T01:08:31.688Z,10.34
2023-05-19T01:11:34.122Z,10.38
2023-05-19T01:14:36.611Z,10.34
2023-05-19T01:17:54.794Z,10.22
2023-05-19T01:21:44.493Z,10.07
2023-05-19T01:24:54.844Z,10.37
2023-05-19T01:28:02.890Z,10.38
2023-05-19T01:31:07.475Z,10.27
2023-05-19T01:34:13.116Z,10.41
2023-05-19T01:37:17.738Z,10.41
2023-05-19T01:40:23.869Z,10.45
2023-05-19T01:43:27.153Z,10.31
2023-05-19T01:46:29.669Z,10.39
2023-05-19T01:49:32.192Z,10.42
2023-05-19T01:52:34.621Z,10.23
2023-05-19T01:55:44.839Z,10.16
2023-05-19T01:58:53.101Z,10.28
2023-05-19T02:02:00.530Z,10.21
2023-05-19T02:05:18.649Z,10.30
2023-05-19T02:08:25.949Z,10.33
2023-05-19T02:11:40.035Z,10.38
2023-05-19T02:14:49.702Z,10.34
2023-05-19T02:17:55.654Z,10.05
2023-05-19T02:20:58.290Z,10.02
2023-05-19T02:24:00.872Z,9.95
2023-05-19T02:27:03.874Z,9.92
2023-05-19T02:30:08.307Z,9.96
2023-05-19T02:33:12.512Z,10.01
2023-05-19T02:36:15.136Z,10.00
2023-05-19T02:39:17.827Z,9.97
2023-05-19T02:42:20.960Z,10.00
2023-05-19T02:45:23.913Z,10.10
2023-05-19T02:48:26.379Z,10.13
2023-05-19T02:51:28.794Z,10.07
2023-05-19T02:54:31.796Z,10.13
2023-05-19T02:57:35.036Z,10.08
2023-05-19T03:00:37.514Z,10.02
2023-05-19T03:03:40.042Z,10.02
2023-05-19T03:06:42.578Z,10.00
2023-05-19T03:09:45.003Z,9.95
2023-05-19T03:12:47.378Z,9.81
2023-05-19T03:15:51.210Z,9.89
2023-05-19T03:18:53.877Z,9.85
2023-05-19T03:21:56.571Z,10.00
2023-05-19T03:24:59.129Z,9.93
2023-05-19T03:28:01.744Z,9.97
2023-05-19T03:31:04.294Z,10.12
2023-05-19T03:34:11.900Z,10.37
2023-05-19T03:37:14.384Z,10.45
2023-05-19T03:40:18.924Z,10.51
2023-05-19T03:43:21.623Z,10.37
2023-05-19T03:46:29.740Z,10.54
2023-05-19T03:49:46.012Z,10.53
2023-05-19T03:53:07.286Z,10.68
2023-05-19T03:56:18.135Z,10.66
2023-05-19T03:59:20.646Z,10.94
2023-05-19T04:02:23.095Z,10.93
2023-05-19T04:05:25.791Z,11.00
2023-05-19T04:08:29.436Z,11.20
2023-05-19T04:11:32.023Z,11.25
2023-05-19T04:14:34.449Z,11.39
2023-05-19T04:17:37.143Z,11.47
2023-05-19T04:20:39.593Z,11.31
2023-05-19T04:23:42.154Z,11.45
2023-05-19T04:26:47.095Z,11.54
2023-05-19T04:29:51.245Z,11.56
2023-05-19T04:32:53.797Z,11.73
2023-05-19T04:35:56.840Z,11.75
2023-05-19T04:39:02.767Z,11.54
2023-05-19T04:42:06.470Z,11.89
2023-05-19T04:45:10.452Z,11.84
2023-05-19T04:48:15.955Z,12.07
2023-05-19T04:51:18.375Z,12.19
2023-05-19T04:54:21.389Z,12.45
2023-05-19T04:57:23.919Z,12.66
2023-05-19T05:00:26.771Z,12.64
2023-05-19T05:03:35.458Z,12.74
2023-05-19T05:06:42.520Z,12.99
2023-05-19T05:09:45.576Z,13.05
2023-05-19T05:12:48.336Z,13.11
2023-05-19T05:15:54.578Z,13.20
2023-05-19T05:18:57.867Z,13.43
2023-05-19T05:22:01.006Z,13.47
2023-05-19T05:25:04.287Z,13.86
2023-05-19T05:28:06.808Z,14.08
2023-05-19T05:31:11.753Z,14.03
2023-05-19T05:34:17.681Z,14.33
2023-05-19T05:37:20.509Z,14.81
2023-05-19T05:40:22.992Z,14.87
2023-05-19T05:43:25.853Z,14.78
2023-05-19T05:46:33.569Z,14.84
2023-05-19T05:49:38.154Z,15.46
2023-05-19T05:52:42.572Z,15.69
2023-05-19T05:55:47.206Z,16.22
2023-05-19T05:58:50.747Z,16.29
2023-05-19T06:01:53.270Z,17.15
2023-05-19T06:04:56.280Z,17.55
2023-05-19T06:07:58.868Z,18.52
2023-05-19T06:11:08.456Z,18.96
2023-05-19T06:14:11.837Z,19.82
2023-05-19T06:17:37.418Z,19.84
2023-05-19T06:20:39.899Z,19.83
2023-05-19T06:23:42.458Z,20.20
2023-05-19T06:26:46.390Z,20.33
2023-05-19T06:29:48.884Z,20.60
2023-05-19T06:32:51.354Z,20.38
2023-05-19T06:35:53.903Z,19.76
2023-05-19T06:38:57.664Z,19.52
2023-05-19T06:42:00.890Z,21.34
2023-05-19T06:45:23.947Z,22.01
2023-05-19T06:48:27.575Z,21.45
2023-05-19T06:51:30.088Z,21.89
2023-05-19T06:54:32.739Z,23.35
2023-05-19T06:57:36.249Z,22.44
2023-05-19T07:00:39.373Z,22.33
2023-05-19T07:03:44.163Z,21.59
2023-05-19T07:06:50.251Z,23.55
2023-05-19T07:09:53.188Z,24.88
2023-05-19T07:12:58.213Z,26.10
2023-05-19T07:16:04.172Z,26.98
2023-05-19T07:19:06.771Z,27.68
2023-05-19T07:22:09.328Z,27.71
2023-05-19T07:25:11.796Z,27.53
2023-05-19T07:28:15.025Z,28.03
2023-05-19T07:31:17.624Z,28.62
2023-05-19T07:34:20.900Z,28.26
2023-05-19T07:37:23.367Z,28.32
2023-05-19T07:40:25.783Z,28.88
2023-05-19T07:43:28.281Z,28.74
2023-05-19T07:46:30.800Z,27.98
2023-05-19T07:49:33.291Z,28.32
2023-05-19T07:52:35.933Z,29.09
2023-05-19T07:55:38.329Z,29.22
2023-05-19T07:58:40.846Z,29.02
2023-05-19T08:01:43.365Z,28.19
2023-05-19T08:04:45.912Z,28.31
2023-05-19T08:07:48.463Z,28.93
2023-05-19T08:10:50.998Z,29.08
2023-05-19T08:13:53.606Z,28.11
2023-05-19T08:16:56.369Z,28.03
2023-05-19T08:20:00.387Z,28.72
2023-05-19T08:23:02.849Z,28.98
2023-05-19T08:26:05.690Z,28.04
2023-05-19T08:29:08.165Z,28.21
2023-05-19T08:32:13.045Z,29.17
2023-05-19T08:35:15.940Z,29.19
2023-05-19T08:38:18.442Z,29.26
2023-05-19T08:41:21.787Z,29.26
2023-05-19T08:44:24.189Z,29.35
2023-05-19T08:47:27.970Z,28.76
2023-05-19T08:50:36.445Z,29.33
2023-05-19T08:53:44.064Z,29.72
2023-05-19T08:56:47.302Z,29.78
2023-05-19T08:59:54.349Z,30.02
2023-05-19T09:03:05.982Z,29.84
2023-05-19T09:06:19.771Z,30.15
2023-05-19T09:09:22.289Z,29.02
2023-05-19T09:12:24.741Z,28.24
2023-05-19T09:15:28.422Z,27.99
2023-05-19T09:18:31.503Z,28.21
2023-05-19T09:21:34.055Z,28.37
2023-05-19T09:24:37.935Z,28.02
2023-05-19T09:27:40.366Z,27.67
2023-05-19T09:30:42.766Z,28.24
2023-05-19T09:33:46.281Z,29.75
2023-05-19T09:36:53.439Z,30.02
2023-05-19T09:39:56.602Z,30.53
2023-05-19T09:42:59.052Z,30.10
2023-05-19T09:46:09.604Z,29.74
2023-05-19T09:49:14.351Z,28.59
2023-05-19T09:52:16.797Z,29.32
2023-05-19T09:55:23.265Z,30.22
2023-05-19T09:58:27.100Z,30.59
2023-05-19T10:01:33.697Z,31.34
2023-05-19T10:04:36.661Z,31.94
2023-05-19T10:07:40.583Z,31.85
2023-05-19T10:10:43.371Z,32.36
2023-05-19T10:13:47.205Z,31.70
2023-05-19T10:16:52.448Z,30.53
2023-05-19T10:19:55.214Z,30.83
2023-05-19T10:22:57.638Z,30.59
2023-05-19T10:26:04.159Z,31.17
2023-05-19T10:29:06.957Z,32.14
2023-05-19T10:32:17.581Z,31.79
2023-05-19T10:35:22.615Z,31.33
2023-05-19T10:38:43.119Z,31.49
2023-05-19T10:42:07.143Z,30.58
2023-05-19T10:45:16.328Z,31.13
2023-05-19T10:48:23.085Z,30.64
2023-05-19T10:51:32.185Z,31.06
2023-05-19T10:54:43.452Z,31.91
2023-05-19T10:57:58.577Z,31.57
2023-05-19T11:01:01.582Z,31.75
2023-05-19T11:04:06.318Z,31.93
2023-05-19T11:07:10.534Z,31.37
2023-05-19T11:10:13.331Z,31.42
2023-05-19T11:13:22.705Z,31.14
2023-05-19T11:16:28.657Z,32.44
2023-05-19T11:19:34.478Z,32.78
2023-05-19T11:22:37.205Z,33.27
2023-05-19T11:25:47.093Z,31.56
2023-05-19T11:28:49.761Z,31.53
2023-05-19T11:31:52.311Z,31.70
2023-05-19T11:34:56.087Z,32.04
2023-05-19T11:37:59.113Z,31.49
2023-05-19T11:41:01.595Z,31.76
2023-05-19T11:44:04.058Z,31.61
2023-05-19T11:47:06.744Z,32.12
2023-05-19T11:50:11.433Z,32.19
2023-05-19T11:53:14.831Z,32.16
2023-05-19T11:56:17.240Z,31.87
2023-05-19T11:59:34.829Z,32.94
2023-05-19T12:02:38.189Z,33.08
2023-05-19T12:05:46.006Z,33.20
2023-05-19T12:08:51.963Z,33.04
2023-05-19T12:11:55.186Z,32.92
2023-05-19T12:14:57.722Z,32.06
2023-05-19T12:18:02.014Z,32.81
2023-05-19T12:21:05.115Z,32.53
2023-05-19T12:24:07.736Z,32.72
2023-05-19T12:27:14.277Z,32.63
2023-05-19T12:30:17.056Z,32.12
2023-05-19T12:33:22.951Z,32.20
2023-05-19T12:36:25.494Z,32.55
2023-05-19T12:39:28.941Z,32.21
2023-05-19T12:42:31.666Z,31.56
2023-05-19T12:45:35.480Z,31.59
2023-05-19T12:48:43.277Z,31.01
2023-05-19T12:51:52.476Z,31.43
2023-05-19T12:55:07.196Z,31.52
2023-05-19T12:58:11.574Z,31.15
2023-05-19T13:01:18.793Z,30.73
2023-05-19T13:04:21.332Z,29.89
2023-05-19T13:07:24.452Z,30.63
2023-05-19T13:10:27.841Z,30.86
2023-05-19T13:13:30.242Z,31.27
2023-05-19T13:16:32.651Z,31.22
2023-05-19T13:19:35.128Z,31.41
2023-05-19T13:22:37.944Z,31.38
2023-05-19T13:25:41.405Z,30.72
2023-05-19T13:28:43.886Z,31.25
2023-05-19T13:31:46.379Z,31.09
2023-05-19T13:34:48.997Z,31.16
2023-05-19T13:37:51.390Z,31.17
2023-05-19T13:40:53.883Z,30.94
2023-05-19T13:43:59.787Z,30.55
2023-05-19T13:47:02.331Z,30.14
2023-05-19T13:50:05.774Z,30.18
2023-05-19T13:53:08.495Z,29.55
2023-05-19T13:56:10.977Z,28.77
2023-05-19T13:59:13.611Z,28.53
2023-05-19T14:02:16.288Z,28.02
2023-05-19T14:05:18.834Z,28.11
2023-05-19T14:08:22.139Z,27.65
2023-05-19T14:11:24.658Z,27.78
2023-05-19T14:14:27.193Z,27.76
2023-05-19T14:17:29.647Z,27.53
2023-05-19T14:20:32.351Z,27.48
2023-05-19T14:23:34.900Z,27.15
2023-05-19T14:26:37.267Z,27.23
2023-05-19T14:29:39.744Z,27.04
2023-05-19T14:32:42.225Z,27.07
2023-05-19T14:35:44.756Z,26.99
2023-05-19T14:38:47.186Z,26.73
2023-05-19T14:41:51.045Z,26.82
2023-05-19T14:44:53.498Z,26.54
2023-05-19T14:47:56.043Z,26.65
2023-05-19T14:50:58.468Z,26.50
2023-05-19T14:54:02.310Z,26.46
2023-05-19T14:57:07.295Z,26.31
2023-05-19T15:00:10.437Z,26.34
2023-05-19T15:03:14.789Z,26.33
2023-05-19T15:06:17.447Z,26.20
2023-05-19T15:09:19.871Z,26.06
2023-05-19T15:12:22.407Z,26.08
2023-05-19T15:15:24.831Z,26.47
2023-05-19T15:18:27.250Z,26.43
2023-05-19T15:21:29.701Z,26.24
2023-05-19T15:24:32.121Z,25.68
2023-05-19T15:27:36.349Z,25.40
2023-05-19T15:30:38.803Z,25.16
2023-05-19T15:33:41.388Z,24.88
2023-05-19T15:36:43.921Z,24.83
2023-05-19T15:39:46.376Z,24.75
2023-05-19T15:42:48.784Z,24.84
2023-05-19T15:45:54.863Z,24.87
2023-05-19T15:48:57.276Z,24.68
2023-05-19T15:51:59.652Z,24.55
2023-05-19T15:55:02.092Z,24.75
2023-05-19T15:58:04.579Z,24.69
2023-05-19T16:01:07.441Z,24.68
2023-05-19T16:04:09.911Z,24.48
2023-05-19T16:07:12.300Z,24.70
2023-05-19T16:10:14.860Z,24.56
2023-05-19T16:13:17.304Z,24.65
2023-05-19T16:16:19.823Z,24.32
2023-05-19T16:19:23.854Z,24.24
2023-05-19T16:22:27.217Z,23.92
2023-05-19T16:25:29.789Z,23.78
2023-05-19T16:28:32.569Z,23.58
2023-05-19T16:31:35.016Z,23.61
2023-05-19T16:34:37.472Z,23.36
2023-05-19T16:37:40.198Z,23.23
2023-05-19T16:40:42.613Z,23.18
2023-05-19T16:43:45.026Z,23.11
2023-05-19T16:46:47.455Z,22.81
2023-05-19T16:49:49.834Z,22.83
2023-05-19T16:52:52.202Z,22.60
2023-05-19T16:55:54.693Z,22.60
2023-05-19T16:58:57.137Z,22.41
2023-05-19T17:01:59.615Z,22.20
2023-05-19T17:05:02.046Z,22.15
2023-05-19T17:08:05.741Z,22.13
2023-05-19T17:11:08.293Z,22.16
2023-05-19T17:14:11.078Z,22.09
2023-05-19T17:17:13.519Z,22.16
2023-05-19T17:20:16.290Z,21.90
2023-05-19T17:23:18.697Z,21.64
2023-05-19T17:26:22.167Z,21.49
2023-05-19T17:29:24.809Z,21.42
2023-05-19T17:32:29.111Z,21.15
2023-05-19T17:35:33.413Z,21.11
2023-05-19T17:38:40.113Z,20.90
2023-05-19T17:41:43.693Z,20.95
2023-05-19T17:44:46.173Z,20.79
2023-05-19T17:47:48.673Z,20.57
2023-05-19T17:50:51.122Z,20.61
2023-05-19T17:53:53.933Z,20.42
2023-05-19T17:56:58.582Z,20.34
2023-05-19T18:00:01.553Z,20.14
2023-05-19T18:03:06.247Z,19.82
2023-05-19T18:06:09.190Z,19.86
2023-05-19T18:09:14.334Z,19.82
2023-05-19T18:12:17.575Z,19.77
2023-05-19T18:15:19.984Z,19.75
2023-05-19T18:18:22.442Z,19.58
2023-05-19T18:21:25.303Z,19.67
2023-05-19T18:24:27.775Z,19.75
2023-05-19T18:27:31.409Z,19.57
2023-05-19T18:30:34.037Z,19.69
2023-05-19T18:33:36.711Z,19.57
2023-05-19T18:36:39.075Z,19.34
2023-05-19T18:39:41.453Z,19.27
2023-05-19T18:42:43.951Z,19.41
2023-05-19T18:45:49.310Z,19.28
2023-05-19T18:48:51.741Z,19.29
2023-05-19T18:51:54.204Z,19.43
2023-05-19T18:54:56.710Z,19.30
2023-05-19T18:57:59.240Z,19.23
2023-05-19T19:01:01.715Z,18.80
2023-05-19T19:04:04.340Z,19.04
2023-05-19T19:07:06.857Z,18.69
2023-05-19T19:10:09.617Z,18.57
2023-05-19T19:13:12.074Z,18.31
2023-05-19T19:16:14.538Z,18.25
2023-05-19T19:19:17.018Z,18.17
2023-05-19T19:22:19.490Z,18.00
2023-05-19T19:25:23.534Z,17.85
2023-05-19T19:28:26.557Z,17.64
2023-05-19T19:31:29.103Z,17.73
2023-05-19T19:34:31.735Z,17.54
2023-05-19T19:37:34.106Z,17.21
2023-05-19T19:40:36.805Z,17.01
2023-05-19T19:43:39.374Z,17.01
2023-05-19T19:46:41.808Z,16.79
2023-05-19T19:49:45.842Z,16.68
2023-05-19T19:52:48.293Z,16.49
2023-05-19T19:55:57.648Z,16.50
2023-05-19T19:59:00.283Z,15.90
2023-05-19T20:02:02.849Z,16.30
2023-05-19T20:05:05.839Z,16.50
2023-05-19T20:08:08.650Z,16.52
2023-05-19T20:11:11.132Z,16.55
2023-05-19T20:14:13.515Z,16.33
2023-05-19T20:17:16.030Z,16.39
2023-05-19T20:20:18.440Z,16.05
2023-05-19T20:23:21.330Z,15.57
2023-05-19T20:26:24.374Z,15.53
2023-05-19T20:29:27.329Z,15.42
2023-05-19T20:32:29.742Z,15.29
2023-05-19T20:35:32.363Z,15.11
2023-05-19T20:38:34.998Z,15.16
2023-05-19T20:41:37.492Z,15.21
2023-05-19T20:44:39.865Z,15.02
2023-05-19T20:47:42.259Z,15.02
2023-05-19T20:50:44.745Z,15.01
2023-05-19T20:53:47.201Z,14.82
2023-05-19T20:56:51.087Z,14.78
2023-05-19T20:59:53.561Z,14.58
2023-05-19T21:02:56.046Z,14.25
2023-05-19T21:05:58.507Z,14.37
2023-05-19T21:09:03.807Z,14.37
2023-05-19T21:12:06.338Z,14.24
2023-05-19T21:15:09.870Z,14.17
2023-05-19T21:18:12.835Z,14.31
2023-05-19T21:21:15.396Z,14.29
2023-05-19T21:24:17.875Z,14.08
2023-05-19T21:27:20.385Z,14.18
2023-05-19T21:30:23.639Z,13.96
2023-05-19T21:33:26.019Z,14.06
2023-05-19T21:36:28.445Z,14.15
2023-05-19T21:39:30.821Z,14.07
2023-05-19T21:42:33.183Z,14.04
2023-05-19T21:45:35.616Z,13.90
2023-05-19T21:48:38.077Z,13.77
2023-05-19T21:51:40.582Z,13.50
2023-05-19T21:54:43.148Z,13.76
2023-05-19T21:57:45.546Z,13.63
2023-05-19T22:00:50.008Z,13.65
2023-05-19T22:03:53.077Z,13.37
2023-05-19T22:06:55.507Z,13.64
2023-05-19T22:09:57.855Z,13.48
2023-05-19T22:13:00.274Z,13.39
2023-05-19T22:16:04.673Z,13.20
2023-05-19T22:19:07.368Z,13.27
2023-05-19T22:22:14.419Z,13.06
2023-05-19T22:25:17.149Z,13.16
2023-05-19T22:28:19.531Z,13.12
2023-05-19T22:31:21.952Z,13.21
2023-05-19T22:34:24.390Z,13.15
2023-05-19T22:37:28.889Z,13.12
2023-05-19T22:40:32.544Z,12.85
2023-05-19T22:43:35.202Z,12.93
2023-05-19T22:46:37.684Z,12.79
2023-05-19T22:49:41.277Z,13.13
2023-05-19T22:52:43.727Z,13.27
2023-05-19T22:55:46.228Z,13.17
2023-05-19T22:58:48.642Z,13.07
2023-05-19T23:01:51.134Z,12.83
2023-05-19T23:04:53.622Z,12.94
2023-05-19T23:07:56.173Z,12.84
2023-05-19T23:11:02.280Z,12.81
2023-05-19T23:14:04.764Z,12.85
2023-05-19T23:17:07.390Z,12.92
2023-05-19T23:20:10.640Z,12.81
2023-05-19T23:23:13.223Z,12.80
2023-05-19T23:26:15.655Z,12.81
2023-05-19T23:29:18.136Z,12.92
2023-05-19T23:32:20.537Z,12.62
2023-05-19T23:35:22.906Z,12.33
2023-05-19T23:38:25.740Z,12.52
2023-05-19T23:41:28.198Z,12.27
2023-05-19T23:44:30.705Z,12.19
2023-05-19T23:47:33.089Z,12.33
2023-05-19T23:50:35.723Z,12.51
2023-05-19T23:53:38.228Z,12.40
2023-05-19T23:56:40.786Z,12.31
2023-05-19T23:59:43.179Z,12.43
